createdAt,value
2019-03-26T00:02:20.537Z,15.03
2019-03-26T00:04:52.914Z,14.07
2019-03-26T00:07:25.287Z,14.80
2019-03-26T00:09:57.659Z,13.50
2019-03-26T00:12:30.049Z,14.33
2019-03-26T00:15:02.436Z,13.77
2019-03-26T00:17:36.087Z,12.47
2019-03-26T00:20:08.885Z,12.93
2019-03-26T00:22:41.271Z,12.30
2019-03-26T00:25:13.649Z,13.43
2019-03-26T00:27:46.044Z,13.87
2019-03-26T00:30:18.421Z,13.80
2019-03-26T00:32:50.794Z,13.07
2019-03-26T00:35:23.171Z,12.70
2019-03-26T00:37:55.536Z,12.53
2019-03-26T00:40:27.895Z,11.53
2019-03-26T00:43:00.330Z,11.83
2019-03-26T00:45:32.701Z,11.53
2019-03-26T00:48:05.113Z,11.60
2019-03-26T00:50:37.495Z,11.27
2019-03-26T00:53:09.879Z,11.10
2019-03-26T00:55:44.275Z,10.87
2019-03-26T00:58:16.336Z,11.27
2019-03-26T01:00:48.699Z,10.77
2019-03-26T01:03:21.090Z,10.30
2019-03-26T01:05:53.444Z,9.90
2019-03-26T01:08:25.895Z,9.97
2019-03-26T01:10:58.211Z,10.00
2019-03-26T01:13:32.905Z,10.60
2019-03-26T01:16:05.289Z,8.80
2019-03-26T01:18:37.721Z,9.40
2019-03-26T01:21:10.126Z,9.60
2019-03-26T01:23:42.505Z,9.30
2019-03-26T01:26:14.928Z,9.47
2019-03-26T01:28:47.319Z,8.90
2019-03-26T01:31:19.724Z,8.87
2019-03-26T01:33:52.181Z,10.27
2019-03-26T01:36:24.528Z,10.07
2019-03-26T01:38:56.917Z,10.73
2019-03-26T01:41:29.327Z,11.23
2019-03-26T01:44:01.690Z,10.40
2019-03-26T01:46:34.085Z,11.43
2019-03-26T01:49:06.459Z,12.30
2019-03-26T01:51:38.833Z,11.50
2019-03-26T01:54:11.203Z,11.07
2019-03-26T01:56:43.586Z,11.53
2019-03-26T01:59:15.958Z,10.50
2019-03-26T02:01:48.357Z,11.60
2019-03-26T02:04:20.708Z,9.83
2019-03-26T02:06:53.076Z,10.23
2019-03-26T02:09:25.429Z,9.20
2019-03-26T02:11:57.816Z,10.50
2019-03-26T02:14:30.174Z,10.67
2019-03-26T02:17:02.582Z,11.00
2019-03-26T02:19:35.918Z,10.87
2019-03-26T02:22:08.312Z,11.00
2019-03-26T02:24:40.681Z,12.23
2019-03-26T02:27:13.165Z,11.73
2019-03-26T02:29:45.642Z,11.40
2019-03-26T02:32:18.101Z,12.30
2019-03-26T02:34:50.460Z,11.87
2019-03-26T02:37:22.837Z,10.50
2019-03-26T02:39:55.197Z,11.33
2019-03-26T02:42:27.584Z,10.50
2019-03-26T02:44:59.929Z,11.33
2019-03-26T02:47:32.334Z,11.70
2019-03-26T02:50:05.952Z,12.23
2019-03-26T02:52:38.327Z,11.57
2019-03-26T02:55:10.887Z,11.00
2019-03-26T02:57:43.282Z,11.97
2019-03-26T03:00:15.815Z,11.37
2019-03-26T03:02:48.410Z,10.97
2019-03-26T03:05:34.230Z,10.00
2019-03-26T03:07:54.931Z,11.10
2019-03-26T03:10:27.327Z,11.20
2019-03-26T03:12:59.706Z,11.73
2019-03-26T03:15:32.358Z,11.10
2019-03-26T03:18:04.757Z,11.53
2019-03-26T03:20:37.096Z,10.90
2019-03-26T03:23:10.912Z,12.10
2019-03-26T03:25:43.598Z,11.05
2019-03-26T03:28:16.242Z,11.70
2019-03-26T03:30:48.885Z,11.12
2019-03-26T03:33:21.263Z,11.30
2019-03-26T03:35:53.914Z,10.88
2019-03-26T03:38:26.577Z,10.65
2019-03-26T03:40:58.923Z,10.60
2019-03-26T03:43:31.608Z,11.38
2019-03-26T03:46:05.409Z,11.22
2019-03-26T03:48:38.469Z,11.55
2019-03-26T03:51:12.768Z,12.20
2019-03-26T03:53:45.639Z,11.75
2019-03-26T03:56:21.158Z,11.18
2019-03-26T03:58:54.107Z,12.35
2019-03-26T04:01:26.749Z,12.15
2019-03-26T04:03:59.416Z,11.25
2019-03-26T04:06:32.061Z,11.12
2019-03-26T04:09:05.570Z,11.35
2019-03-26T04:11:38.383Z,11.78
2019-03-26T04:14:11.196Z,11.97
2019-03-26T04:16:43.868Z,12.50
2019-03-26T04:19:16.529Z,11.68
2019-03-26T04:21:49.187Z,12.53
2019-03-26T04:24:21.915Z,11.12
2019-03-26T04:26:54.591Z,11.90
2019-03-26T04:29:27.240Z,11.80
2019-03-26T04:31:59.897Z,11.40
2019-03-26T04:34:32.542Z,11.15
2019-03-26T04:37:05.199Z,11.30
2019-03-26T04:39:37.871Z,10.80
2019-03-26T04:42:10.551Z,11.05
2019-03-26T04:44:43.217Z,11.88
2019-03-26T04:47:15.966Z,11.22
2019-03-26T04:49:48.603Z,11.40
2019-03-26T04:52:21.291Z,11.73
2019-03-26T04:54:53.933Z,12.80
2019-03-26T04:57:26.686Z,11.93
2019-03-26T04:59:59.328Z,11.55
2019-03-26T05:02:31.705Z,11.57
2019-03-26T05:05:04.072Z,12.20
2019-03-26T05:07:36.743Z,13.43
2019-03-26T05:10:09.501Z,14.43
2019-03-26T05:12:42.163Z,15.32
2019-03-26T05:15:15.111Z,14.15
2019-03-26T05:17:47.809Z,13.35
2019-03-26T05:20:20.180Z,12.80
2019-03-26T05:22:52.859Z,13.32
2019-03-26T05:25:25.236Z,13.07
2019-03-26T05:27:58.209Z,12.78
2019-03-26T05:30:33.152Z,14.03
2019-03-26T05:33:05.216Z,14.40
2019-03-26T05:35:37.583Z,13.27
2019-03-26T05:38:10.397Z,14.70
2019-03-26T05:40:43.028Z,11.45
2019-03-26T05:43:15.708Z,12.35
2019-03-26T05:45:48.061Z,13.40
2019-03-26T05:48:20.752Z,13.68
2019-03-26T05:50:54.101Z,15.47
2019-03-26T05:53:26.494Z,14.47
2019-03-26T05:55:58.880Z,14.20
2019-03-26T05:58:31.539Z,14.68
2019-03-26T06:01:04.207Z,14.95
2019-03-26T06:03:36.865Z,24.82
2019-03-26T06:06:09.622Z,22.70
2019-03-26T06:08:43.755Z,16.52
2019-03-26T06:11:16.158Z,16.37
2019-03-26T06:13:48.823Z,12.45
2019-03-26T06:16:21.469Z,12.82
2019-03-26T06:18:54.125Z,13.78
2019-03-26T06:21:26.483Z,14.10
2019-03-26T06:23:58.844Z,13.30
2019-03-26T06:26:31.506Z,13.90
2019-03-26T06:29:03.881Z,19.10
2019-03-26T06:31:36.293Z,14.40
2019-03-26T06:34:10.478Z,14.73
2019-03-26T06:36:43.204Z,14.10
2019-03-26T06:39:15.856Z,15.23
2019-03-26T06:41:48.242Z,14.27
2019-03-26T06:44:20.638Z,14.63
2019-03-26T06:46:53.049Z,14.50
2019-03-26T06:49:25.717Z,16.25
2019-03-26T06:51:58.105Z,15.70
2019-03-26T06:54:51.679Z,15.90
2019-03-26T06:57:35.033Z,14.97
2019-03-26T06:59:57.608Z,16.87
2019-03-26T07:02:31.062Z,17.53
2019-03-26T07:05:03.439Z,16.30
2019-03-26T07:07:35.824Z,17.47
2019-03-26T07:10:10.597Z,17.47
2019-03-26T07:12:43.026Z,16.20
2019-03-26T07:15:15.530Z,17.87
2019-03-26T07:17:48.024Z,17.83
2019-03-26T07:20:20.476Z,16.40
2019-03-26T07:22:52.899Z,16.77
2019-03-26T07:25:25.268Z,17.87
2019-03-26T07:27:57.659Z,16.10
2019-03-26T07:30:54.749Z,17.20
2019-03-26T07:33:27.120Z,15.67
2019-03-26T07:35:59.487Z,17.20
2019-03-26T07:38:31.877Z,16.00
2019-03-26T07:41:04.278Z,15.23
2019-03-26T07:43:36.671Z,15.70
2019-03-26T07:46:09.053Z,17.70
2019-03-26T07:48:42.428Z,16.40
2019-03-26T07:51:15.854Z,15.80
2019-03-26T07:53:48.251Z,16.17
2019-03-26T07:56:20.644Z,16.23
2019-03-26T07:58:53.019Z,17.60
2019-03-26T08:01:25.419Z,17.67
2019-03-26T08:03:58.857Z,16.40
2019-03-26T08:06:31.293Z,16.00
2019-03-26T08:09:04.562Z,16.73
2019-03-26T08:11:36.944Z,16.83
2019-03-26T08:14:09.297Z,15.37
2019-03-26T08:16:41.736Z,15.23
2019-03-26T08:19:14.244Z,17.77
2019-03-26T08:21:46.617Z,17.60
2019-03-26T08:24:19.078Z,17.13
2019-03-26T08:26:52.168Z,16.27
2019-03-26T08:29:24.594Z,17.80
2019-03-26T08:31:56.997Z,17.47
2019-03-26T08:34:29.355Z,16.97
2019-03-26T08:37:01.775Z,15.27
2019-03-26T08:39:35.120Z,16.67
2019-03-26T08:42:07.515Z,16.17
2019-03-26T08:44:41.551Z,15.57
2019-03-26T08:47:14.062Z,16.40
2019-03-26T08:49:46.466Z,16.53
2019-03-26T08:52:18.933Z,15.40
2019-03-26T08:54:51.315Z,15.17
2019-03-26T08:57:23.741Z,14.73
2019-03-26T08:59:56.110Z,14.87
2019-03-26T09:02:28.526Z,14.27
2019-03-26T09:05:02.001Z,14.40
2019-03-26T09:07:34.392Z,14.10
2019-03-26T09:10:08.948Z,13.17
2019-03-26T09:12:41.349Z,14.17
2019-03-26T09:15:15.763Z,14.03
2019-03-26T09:17:48.193Z,13.70
2019-03-26T09:20:20.755Z,14.10
2019-03-26T09:22:53.182Z,13.23
2019-03-26T09:25:26.543Z,13.53
2019-03-26T09:27:58.956Z,14.70
2019-03-26T09:30:31.315Z,13.83
2019-03-26T09:33:03.733Z,13.40
2019-03-26T09:35:37.209Z,13.30
2019-03-26T09:38:09.620Z,11.87
2019-03-26T09:40:42.027Z,13.50
2019-03-26T09:43:14.512Z,13.73
2019-03-26T09:45:46.891Z,13.93
2019-03-26T09:48:19.476Z,13.93
2019-03-26T09:50:51.879Z,13.30
2019-03-26T09:53:24.246Z,12.50
2019-03-26T09:55:56.642Z,11.80
2019-03-26T09:58:29.012Z,12.53
2019-03-26T10:01:01.440Z,12.40
2019-03-26T10:03:33.821Z,12.93
2019-03-26T10:06:06.215Z,12.30
2019-03-26T10:08:51.416Z,12.57
2019-03-26T10:11:12.729Z,12.30
2019-03-26T10:13:45.110Z,12.27
2019-03-26T10:16:17.950Z,12.90
2019-03-26T10:18:50.335Z,12.60
2019-03-26T10:21:22.748Z,12.50
2019-03-26T10:23:55.174Z,11.20
2019-03-26T10:26:27.594Z,13.83
2019-03-26T10:28:59.994Z,12.40
2019-03-26T10:31:32.453Z,12.00
2019-03-26T10:34:04.970Z,11.37
2019-03-26T10:36:37.456Z,11.97
2019-03-26T10:39:10.547Z,12.90
2019-03-26T10:41:42.956Z,12.63
2019-03-26T10:44:15.336Z,11.23
2019-03-26T10:46:47.783Z,10.70
2019-03-26T10:49:20.163Z,10.80
2019-03-26T10:51:52.560Z,12.23
2019-03-26T10:54:24.966Z,10.20
2019-03-26T10:56:57.357Z,11.80
2019-03-26T10:59:29.815Z,10.57
2019-03-26T11:02:02.241Z,9.73
2019-03-26T11:04:34.685Z,9.70
2019-03-26T11:07:07.164Z,10.10
2019-03-26T11:09:40.641Z,9.57
2019-03-26T11:12:13.035Z,9.87
2019-03-26T11:14:45.456Z,8.77
2019-03-26T11:17:17.829Z,9.47
2019-03-26T11:19:50.223Z,9.20
2019-03-26T11:22:23.779Z,8.73
2019-03-26T11:24:56.186Z,8.73
2019-03-26T11:27:28.585Z,8.57
2019-03-26T11:30:00.997Z,8.57
2019-03-26T11:32:32.084Z,8.83
2019-03-26T11:35:05.397Z,8.80
2019-03-26T11:37:37.811Z,8.50
2019-03-26T11:40:10.739Z,8.40
2019-03-26T11:42:43.195Z,8.90
2019-03-26T11:45:15.901Z,7.93
2019-03-26T11:47:48.276Z,6.90
2019-03-26T11:50:21.128Z,6.90
2019-03-26T11:52:53.509Z,7.00
2019-03-26T11:55:25.935Z,7.03
2019-03-26T11:57:58.419Z,7.00
2019-03-26T12:00:36.639Z,5.47
2019-03-26T12:03:09.289Z,5.63
2019-03-26T12:05:41.719Z,5.10
2019-03-26T12:08:14.123Z,5.37
2019-03-26T12:10:46.602Z,4.83
2019-03-26T12:13:19.001Z,5.40
2019-03-26T12:15:51.449Z,4.70
2019-03-26T12:18:23.851Z,5.07
2019-03-26T12:20:56.289Z,4.60
2019-03-26T12:23:28.686Z,9.10
2019-03-26T12:26:01.105Z,9.27
2019-03-26T12:28:33.496Z,6.53
2019-03-26T12:31:05.910Z,7.27
2019-03-26T12:33:38.278Z,6.60
2019-03-26T12:36:10.672Z,5.80
2019-03-26T12:38:43.071Z,6.17
2019-03-26T12:41:15.528Z,5.70
2019-03-26T12:43:47.922Z,5.83
2019-03-26T12:46:20.306Z,5.00
2019-03-26T12:48:52.705Z,5.47
2019-03-26T12:51:25.098Z,5.30
2019-03-26T12:53:57.534Z,5.70
2019-03-26T12:56:29.952Z,5.90
2019-03-26T12:59:02.371Z,5.80
2019-03-26T13:01:34.763Z,5.90
2019-03-26T13:04:12.777Z,5.00
2019-03-26T13:06:41.274Z,5.87
2019-03-26T13:09:13.969Z,5.65
2019-03-26T13:11:46.473Z,5.80
2019-03-26T13:14:18.873Z,4.93
2019-03-26T13:16:51.260Z,5.10
2019-03-26T13:19:23.694Z,5.60
2019-03-26T13:21:56.094Z,5.20
2019-03-26T13:24:28.539Z,5.20
2019-03-26T13:27:01.037Z,5.57
2019-03-26T13:29:33.460Z,5.00
2019-03-26T13:32:05.880Z,5.27
2019-03-26T13:34:38.284Z,5.00
2019-03-26T13:37:10.711Z,5.17
2019-03-26T13:39:43.153Z,4.00
2019-03-26T13:42:15.559Z,4.93
2019-03-26T13:44:47.938Z,4.60
2019-03-26T13:47:20.361Z,4.90
2019-03-26T13:49:52.742Z,5.10
2019-03-26T13:52:25.176Z,4.80
2019-03-26T13:54:57.580Z,5.00
2019-03-26T13:57:29.966Z,5.03
2019-03-26T14:00:02.395Z,5.70
2019-03-26T14:02:36.362Z,6.03
2019-03-26T14:05:23.826Z,6.60
2019-03-26T14:07:56.284Z,6.27
2019-03-26T14:10:40.124Z,6.27
2019-03-26T14:13:02.924Z,7.33
2019-03-26T14:15:35.411Z,6.60
2019-03-26T14:18:07.832Z,7.10
2019-03-26T14:20:40.229Z,7.77
2019-03-26T14:23:12.664Z,7.00
2019-03-26T14:25:45.086Z,7.10
2019-03-26T14:28:17.467Z,7.90
2019-03-26T14:30:49.878Z,8.60
2019-03-26T14:33:22.315Z,9.60
2019-03-26T14:35:55.131Z,9.80
2019-03-26T14:38:27.555Z,10.40
2019-03-26T14:40:59.975Z,11.53
2019-03-26T14:43:32.397Z,11.33
2019-03-26T14:46:05.960Z,12.10
2019-03-26T14:48:38.399Z,12.10
2019-03-26T14:51:10.808Z,10.73
2019-03-26T14:53:43.222Z,12.03
2019-03-26T14:56:15.658Z,11.73
2019-03-26T14:58:48.086Z,12.67
2019-03-26T15:01:20.486Z,11.20
2019-03-26T15:03:53.191Z,13.15
2019-03-26T15:06:25.600Z,11.80
2019-03-26T15:08:58.046Z,11.83
2019-03-26T15:11:30.450Z,12.13
2019-03-26T15:14:02.970Z,11.23
2019-03-26T15:16:35.358Z,11.37
2019-03-26T15:19:07.873Z,11.37
2019-03-26T15:21:40.295Z,11.87
2019-03-26T15:24:13.321Z,11.17
2019-03-26T15:26:45.723Z,10.30
2019-03-26T15:29:18.180Z,10.50
2019-03-26T15:31:50.539Z,9.33
2019-03-26T15:34:35.354Z,8.83
2019-03-26T15:36:57.321Z,9.90
2019-03-26T15:39:29.741Z,8.57
2019-03-26T15:42:02.131Z,9.47
2019-03-26T15:44:34.551Z,10.73
2019-03-26T15:47:06.985Z,12.40
2019-03-26T15:49:39.514Z,12.53
2019-03-26T15:52:11.933Z,11.00
2019-03-26T15:54:44.343Z,13.37
2019-03-26T15:57:16.729Z,12.33
2019-03-26T15:59:49.131Z,11.80
2019-03-26T16:02:21.817Z,14.55
2019-03-26T16:04:54.227Z,15.10
2019-03-26T16:07:26.643Z,13.80
2019-03-26T16:09:59.069Z,13.67
2019-03-26T16:12:40.963Z,12.87
2019-03-26T16:15:06.439Z,14.70
2019-03-26T16:17:38.851Z,14.60
2019-03-26T16:20:11.308Z,14.80
2019-03-26T16:22:43.755Z,14.20
2019-03-26T16:25:16.155Z,13.23
2019-03-26T16:27:48.578Z,13.30
2019-03-26T16:30:21.287Z,12.27
2019-03-26T16:32:53.693Z,16.80
2019-03-26T16:35:26.109Z,12.10
2019-03-26T16:37:58.506Z,11.90
2019-03-26T16:40:30.922Z,13.33
2019-03-26T16:43:03.334Z,12.90
2019-03-26T16:45:35.768Z,11.80
2019-03-26T16:48:08.173Z,13.57
2019-03-26T16:50:40.577Z,11.97
2019-03-26T16:53:13.014Z,11.53
2019-03-26T16:55:45.477Z,11.87
2019-03-26T16:58:17.883Z,12.03
2019-03-26T17:00:50.334Z,11.50
2019-03-26T17:03:31.236Z,14.33
2019-03-26T17:05:56.817Z,11.40
2019-03-26T17:08:29.266Z,10.57
2019-03-26T17:11:01.793Z,10.57
2019-03-26T17:13:34.275Z,13.13
2019-03-26T17:16:06.749Z,11.57
2019-03-26T17:18:39.156Z,11.40
2019-03-26T17:21:11.679Z,10.07
2019-03-26T17:23:44.119Z,11.23
2019-03-26T17:26:16.549Z,10.23
2019-03-26T17:28:49.093Z,10.00
2019-03-26T17:31:21.508Z,11.10
2019-03-26T17:33:54.998Z,9.30
2019-03-26T17:36:27.460Z,8.80
2019-03-26T17:38:59.864Z,9.50
2019-03-26T17:41:32.291Z,9.30
2019-03-26T17:44:05.798Z,8.93
2019-03-26T17:46:38.239Z,8.90
2019-03-26T17:49:10.638Z,13.30
2019-03-26T17:51:43.204Z,10.53
2019-03-26T17:54:15.768Z,11.50
2019-03-26T17:56:48.187Z,16.37
2019-03-26T17:59:20.591Z,27.70
2019-03-26T18:01:54.361Z,18.07
2019-03-26T18:04:27.091Z,16.90
2019-03-26T18:06:59.488Z,26.20
2019-03-26T18:09:31.952Z,22.03
2019-03-26T18:12:04.352Z,17.50
2019-03-26T18:14:36.955Z,19.70
2019-03-26T18:17:09.367Z,24.90
2019-03-26T18:19:41.814Z,16.30
2019-03-26T18:22:14.313Z,26.97
2019-03-26T18:24:46.710Z,24.50
2019-03-26T18:27:19.264Z,19.93
2019-03-26T18:29:51.776Z,17.20
2019-03-26T18:32:24.174Z,16.13
2019-03-26T18:34:56.608Z,16.87
2019-03-26T18:37:30.152Z,16.80
2019-03-26T18:40:02.683Z,18.60
2019-03-26T18:42:43.915Z,16.63
2019-03-26T18:45:09.581Z,16.30
2019-03-26T18:47:42.000Z,17.97
2019-03-26T18:50:14.728Z,16.70
2019-03-26T18:52:47.163Z,13.43
2019-03-26T18:55:19.657Z,13.23
2019-03-26T18:57:52.107Z,14.70
2019-03-26T19:00:36.310Z,14.80
2019-03-26T19:03:09.375Z,12.60
2019-03-26T19:05:41.807Z,12.03
2019-03-26T19:08:14.219Z,14.60
2019-03-26T19:10:46.615Z,16.17
2019-03-26T19:13:20.195Z,11.57
2019-03-26T19:15:52.713Z,11.60
2019-03-26T19:18:25.168Z,14.43
2019-03-26T19:21:02.311Z,12.40
2019-03-26T19:23:32.869Z,15.33
2019-03-26T19:26:05.302Z,12.40
2019-03-26T19:28:37.681Z,13.90
2019-03-26T19:31:10.172Z,15.30
2019-03-26T19:33:42.589Z,14.10
2019-03-26T19:36:14.998Z,12.30
2019-03-26T19:38:47.426Z,11.33
2019-03-26T19:41:19.838Z,11.07
2019-03-26T19:43:52.316Z,11.80
2019-03-26T19:46:24.742Z,10.87
2019-03-26T19:48:57.147Z,15.70
2019-03-26T19:51:29.571Z,13.00
2019-03-26T19:54:03.052Z,13.57
2019-03-26T19:56:35.483Z,13.03
2019-03-26T19:59:08.108Z,11.80
2019-03-26T20:01:40.582Z,13.07
2019-03-26T20:04:13.006Z,14.20
2019-03-26T20:06:45.478Z,11.33
2019-03-26T20:09:17.888Z,11.33
2019-03-26T20:11:50.331Z,12.13
2019-03-26T20:14:22.715Z,12.90
2019-03-26T20:16:55.183Z,12.73
2019-03-26T20:19:27.709Z,11.90
2019-03-26T20:22:00.168Z,13.03
2019-03-26T20:24:32.600Z,13.33
2019-03-26T20:27:05.140Z,12.10
2019-03-26T20:29:37.531Z,12.43
2019-03-26T20:32:09.963Z,13.50
2019-03-26T20:34:42.362Z,14.67
2019-03-26T20:37:14.835Z,16.70
2019-03-26T20:39:47.255Z,17.73
2019-03-26T20:42:19.813Z,16.73
2019-03-26T20:44:52.343Z,16.50
2019-03-26T20:47:24.776Z,14.80
2019-03-26T20:49:57.301Z,14.53
2019-03-26T20:52:29.727Z,15.73
2019-03-26T20:55:02.381Z,14.83
2019-03-26T20:57:34.923Z,20.10
2019-03-26T21:00:09.732Z,20.50
2019-03-26T21:02:42.922Z,26.80
2019-03-26T21:05:15.459Z,19.77
2019-03-26T21:07:48.027Z,22.00
2019-03-26T21:10:20.426Z,17.50
2019-03-26T21:12:53.025Z,22.43
2019-03-26T21:15:25.427Z,22.47
2019-03-26T21:17:57.835Z,52.83
2019-03-26T21:20:30.231Z,29.33
2019-03-26T21:23:02.684Z,14.37
2019-03-26T21:25:35.285Z,15.43
2019-03-26T21:28:08.036Z,16.10
2019-03-26T21:30:40.471Z,16.17
2019-03-26T21:33:12.970Z,14.90
2019-03-26T21:35:46.500Z,15.10
2019-03-26T21:38:19.817Z,14.77
2019-03-26T21:40:52.217Z,16.17
2019-03-26T21:43:24.603Z,15.77
2019-03-26T21:45:57.045Z,14.63
2019-03-26T21:48:29.475Z,15.97
2019-03-26T21:51:01.881Z,16.30
2019-03-26T21:53:34.294Z,17.10
2019-03-26T21:56:07.224Z,15.40
2019-03-26T21:58:39.706Z,15.80
2019-03-26T22:01:12.082Z,15.20
2019-03-26T22:03:45.563Z,16.17
2019-03-26T22:06:17.973Z,17.00
2019-03-26T22:08:51.846Z,15.73
2019-03-26T22:11:24.235Z,16.20
2019-03-26T22:13:56.627Z,18.70
2019-03-26T22:16:29.039Z,19.10
2019-03-26T22:19:02.606Z,18.80
2019-03-26T22:21:36.149Z,18.47
2019-03-26T22:24:08.591Z,18.70
2019-03-26T22:26:40.998Z,18.57
2019-03-26T22:29:13.418Z,16.03
2019-03-26T22:31:45.832Z,16.60
2019-03-26T22:34:18.212Z,17.07
2019-03-26T22:36:50.728Z,17.00
2019-03-26T22:39:23.111Z,17.37
2019-03-26T22:41:55.719Z,18.23
2019-03-26T22:44:31.701Z,18.60
2019-03-26T22:47:02.231Z,18.10
2019-03-26T22:49:34.611Z,18.00
2019-03-26T22:52:07.023Z,17.17
2019-03-26T22:54:39.421Z,18.67
2019-03-26T22:57:11.817Z,19.00
2019-03-26T22:59:44.229Z,17.37
2019-03-26T23:02:16.686Z,17.40
2019-03-26T23:04:49.088Z,18.90
2019-03-26T23:07:21.526Z,19.00
2019-03-26T23:09:53.980Z,17.50
2019-03-26T23:12:26.368Z,19.10
2019-03-26T23:14:58.760Z,19.50
2019-03-26T23:17:31.171Z,18.90
2019-03-26T23:20:03.544Z,17.83
2019-03-26T23:22:35.991Z,18.67
2019-03-26T23:25:08.416Z,19.40
2019-03-26T23:27:40.863Z,18.20
2019-03-26T23:30:13.625Z,18.73
2019-03-26T23:32:46.008Z,18.37
2019-03-26T23:35:18.477Z,19.10
2019-03-26T23:37:50.880Z,19.57
2019-03-26T23:40:23.284Z,18.67
2019-03-26T23:42:55.663Z,19.17
2019-03-26T23:45:28.033Z,18.10
2019-03-26T23:48:00.428Z,17.80
2019-03-26T23:50:32.817Z,18.70
2019-03-26T23:53:06.287Z,17.63
2019-03-26T23:55:38.645Z,19.03
2019-03-26T23:58:11.029Z,19.33
